sensor_id;sensor_type;location;lat;lon;timestamp;P1;durP1;ratioP1;P2;durP2;ratioP2
70312;SDS011;57723;51.698;5.344;2024-02-23T00:00:07;0.70;;;0.47;;
70312;SDS011;57723;51.698;5.344;2024-02-23T00:02:35;0.43;;;0.40;;
70312;SDS011;57723;51.698;5.344;2024-02-23T00:05:06;0.90;;;0.50;;
70312;SDS011;57723;51.698;5.344;2024-02-23T00:07:32;0.93;;;0.45;;
70312;SDS011;57723;51.698;5.344;2024-02-23T00:10:00;3.50;;;0.50;;
70312;SDS011;57723;51.698;5.344;2024-02-23T00:12:27;1.83;;;0.50;;
70312;SDS011;57723;51.698;5.344;2024-02-23T00:14:53;0.73;;;0.50;;
70312;SDS011;57723;51.698;5.344;2024-02-23T00:17:18;1.13;;;0.47;;
70312;SDS011;57723;51.698;5.344;2024-02-23T00:19:46;1.15;;;0.40;;
70312;SDS011;57723;51.698;5.344;2024-02-23T00:22:12;3.92;;;0.63;;
70312;SDS011;57723;51.698;5.344;2024-02-23T00:24:38;0.65;;;0.50;;
70312;SDS011;57723;51.698;5.344;2024-02-23T00:27:03;0.50;;;0.50;;
70312;SDS011;57723;51.698;5.344;2024-02-23T00:29:35;2.97;;;0.60;;
70312;SDS011;57723;51.698;5.344;2024-02-23T00:32:02;1.85;;;0.50;;
70312;SDS011;57723;51.698;5.344;2024-02-23T00:34:27;0.63;;;0.33;;
70312;SDS011;57723;51.698;5.344;2024-02-23T00:36:58;0.63;;;0.50;;
70312;SDS011;57723;51.698;5.344;2024-02-23T00:39:23;2.03;;;0.60;;
70312;SDS011;57723;51.698;5.344;2024-02-23T00:41:49;1.27;;;0.50;;
70312;SDS011;57723;51.698;5.344;2024-02-23T00:44:14;1.47;;;0.50;;
70312;SDS011;57723;51.698;5.344;2024-02-23T00:46:40;0.82;;;0.43;;
70312;SDS011;57723;51.698;5.344;2024-02-23T00:49:09;1.33;;;0.40;;
70312;SDS011;57723;51.698;5.344;2024-02-23T00:51:35;1.80;;;0.67;;
70312;SDS011;57723;51.698;5.344;2024-02-23T00:54:00;2.08;;;0.55;;
70312;SDS011;57723;51.698;5.344;2024-02-23T00:56:32;5.25;;;0.52;;
70312;SDS011;57723;51.698;5.344;2024-02-23T00:58:57;2.95;;;0.50;;
70312;SDS011;57723;51.698;5.344;2024-02-23T01:01:24;1.67;;;0.40;;
70312;SDS011;57723;51.698;5.344;2024-02-23T01:03:51;1.83;;;0.50;;
70312;SDS011;57723;51.698;5.344;2024-02-23T01:06:22;2.50;;;0.73;;
70312;SDS011;57723;51.698;5.344;2024-02-23T01:08:47;1.33;;;0.50;;
70312;SDS011;57723;51.698;5.344;2024-02-23T01:11:19;2.13;;;0.60;;
70312;SDS011;57723;51.698;5.344;2024-02-23T01:13:47;1.52;;;0.52;;
70312;SDS011;57723;51.698;5.344;2024-02-23T01:16:13;0.85;;;0.68;;
70312;SDS011;57723;51.698;5.344;2024-02-23T01:18:39;1.23;;;0.53;;
70312;SDS011;57723;51.698;5.344;2024-02-23T01:21:04;2.17;;;0.50;;
70312;SDS011;57723;51.698;5.344;2024-02-23T01:23:29;1.88;;;0.50;;
70312;SDS011;57723;51.698;5.344;2024-02-23T01:25:57;1.13;;;0.50;;
70312;SDS011;57723;51.698;5.344;2024-02-23T01:28:24;0.98;;;0.40;;
70312;SDS011;57723;51.698;5.344;2024-02-23T01:30:56;1.42;;;0.60;;
70312;SDS011;57723;51.698;5.344;2024-02-23T01:33:25;0.43;;;0.40;;
70312;SDS011;57723;51.698;5.344;2024-02-23T01:35:50;0.80;;;0.50;;
70312;SDS011;57723;51.698;5.344;2024-02-23T01:38:16;3.20;;;0.60;;
70312;SDS011;57723;51.698;5.344;2024-02-23T01:40:46;0.80;;;0.50;;
70312;SDS011;57723;51.698;5.344;2024-02-23T01:43:12;3.42;;;0.40;;
70312;SDS011;57723;51.698;5.344;2024-02-23T01:45:45;2.15;;;0.60;;
70312;SDS011;57723;51.698;5.344;2024-02-23T01:48:13;1.58;;;0.50;;
70312;SDS011;57723;51.698;5.344;2024-02-23T01:50:42;1.52;;;0.57;;
70312;SDS011;57723;51.698;5.344;2024-02-23T01:53:11;1.02;;;0.50;;
70312;SDS011;57723;51.698;5.344;2024-02-23T01:55:39;8.73;;;0.70;;
70312;SDS011;57723;51.698;5.344;2024-02-23T01:58:05;0.73;;;0.52;;
70312;SDS011;57723;51.698;5.344;2024-02-23T02:00:31;2.60;;;0.95;;
70312;SDS011;57723;51.698;5.344;2024-02-23T02:02:57;3.80;;;0.63;;
70312;SDS011;57723;51.698;5.344;2024-02-23T02:05:25;1.73;;;0.63;;
70312;SDS011;57723;51.698;5.344;2024-02-23T02:07:51;1.05;;;0.50;;
70312;SDS011;57723;51.698;5.344;2024-02-23T02:10:19;1.98;;;0.50;;
70312;SDS011;57723;51.698;5.344;2024-02-23T02:12:45;2.65;;;0.50;;
70312;SDS011;57723;51.698;5.344;2024-02-23T02:15:10;0.70;;;0.50;;
70312;SDS011;57723;51.698;5.344;2024-02-23T02:17:35;2.20;;;0.60;;
70312;SDS011;57723;51.698;5.344;2024-02-23T02:20:02;1.40;;;0.50;;
70312;SDS011;57723;51.698;5.344;2024-02-23T02:22:32;3.88;;;0.60;;
70312;SDS011;57723;51.698;5.344;2024-02-23T02:25:18;3.22;;;0.65;;
70312;SDS011;57723;51.698;5.344;2024-02-23T02:27:43;2.17;;;0.60;;
70312;SDS011;57723;51.698;5.344;2024-02-23T02:30:13;4.72;;;0.65;;
70312;SDS011;57723;51.698;5.344;2024-02-23T02:32:39;4.40;;;0.60;;
70312;SDS011;57723;51.698;5.344;2024-02-23T02:35:07;2.13;;;0.60;;
70312;SDS011;57723;51.698;5.344;2024-02-23T02:37:34;1.35;;;0.60;;
70312;SDS011;57723;51.698;5.344;2024-02-23T02:39:59;1.93;;;0.60;;
70312;SDS011;57723;51.698;5.344;2024-02-23T02:42:24;1.47;;;0.50;;
70312;SDS011;57723;51.698;5.344;2024-02-23T02:44:51;1.17;;;0.40;;
70312;SDS011;57723;51.698;5.344;2024-02-23T02:47:16;0.63;;;0.55;;
70312;SDS011;57723;51.698;5.344;2024-02-23T02:49:42;1.47;;;0.60;;
70312;SDS011;57723;51.698;5.344;2024-02-23T02:52:10;4.60;;;0.73;;
70312;SDS011;57723;51.698;5.344;2024-02-23T02:54:35;2.63;;;0.80;;
70312;SDS011;57723;51.698;5.344;2024-02-23T02:57:01;1.23;;;0.70;;
70312;SDS011;57723;51.698;5.344;2024-02-23T02:59:26;1.80;;;0.50;;
70312;SDS011;57723;51.698;5.344;2024-02-23T03:01:51;1.80;;;0.60;;
70312;SDS011;57723;51.698;5.344;2024-02-23T03:04:17;1.20;;;0.43;;
70312;SDS011;57723;51.698;5.344;2024-02-23T03:06:45;1.03;;;0.50;;
70312;SDS011;57723;51.698;5.344;2024-02-23T03:09:14;0.77;;;0.40;;
70312;SDS011;57723;51.698;5.344;2024-02-23T03:11:39;1.03;;;0.53;;
70312;SDS011;57723;51.698;5.344;2024-02-23T03:14:08;3.63;;;0.65;;
70312;SDS011;57723;51.698;5.344;2024-02-23T03:16:35;1.23;;;0.50;;
70312;SDS011;57723;51.698;5.344;2024-02-23T03:19:05;3.47;;;0.80;;
70312;SDS011;57723;51.698;5.344;2024-02-23T03:21:33;2.30;;;0.50;;
70312;SDS011;57723;51.698;5.344;2024-02-23T03:23:58;1.83;;;0.57;;
70312;SDS011;57723;51.698;5.344;2024-02-23T03:26:24;1.70;;;0.50;;
70312;SDS011;57723;51.698;5.344;2024-02-23T03:28:49;2.30;;;0.50;;
70312;SDS011;57723;51.698;5.344;2024-02-23T03:31:18;1.33;;;0.55;;
70312;SDS011;57723;51.698;5.344;2024-02-23T03:33:46;1.07;;;0.50;;
70312;SDS011;57723;51.698;5.344;2024-02-23T03:36:12;0.77;;;0.50;;
70312;SDS011;57723;51.698;5.344;2024-02-23T03:38:38;1.67;;;0.47;;
70312;SDS011;57723;51.698;5.344;2024-02-23T03:41:03;1.38;;;0.50;;
70312;SDS011;57723;51.698;5.344;2024-02-23T03:43:31;3.17;;;0.50;;
70312;SDS011;57723;51.698;5.344;2024-02-23T03:45:59;1.60;;;0.40;;
70312;SDS011;57723;51.698;5.344;2024-02-23T03:48:25;1.33;;;0.40;;
70312;SDS011;57723;51.698;5.344;2024-02-23T03:50:52;2.38;;;0.60;;
70312;SDS011;57723;51.698;5.344;2024-02-23T03:53:19;1.73;;;0.50;;
70312;SDS011;57723;51.698;5.344;2024-02-23T03:55:44;2.10;;;0.50;;
70312;SDS011;57723;51.698;5.344;2024-02-23T03:58:10;1.25;;;0.40;;
70312;SDS011;57723;51.698;5.344;2024-02-23T04:00:40;2.53;;;0.60;;
70312;SDS011;57723;51.698;5.344;2024-02-23T04:03:07;1.77;;;0.60;;
70312;SDS011;57723;51.698;5.344;2024-02-23T04:05:36;1.73;;;0.68;;
70312;SDS011;57723;51.698;5.344;2024-02-23T04:08:02;2.47;;;0.77;;
70312;SDS011;57723;51.698;5.344;2024-02-23T04:10:39;1.60;;;0.47;;
70312;SDS011;57723;51.698;5.344;2024-02-23T04:13:05;1.88;;;0.73;;
70312;SDS011;57723;51.698;5.344;2024-02-23T04:15:33;1.60;;;0.67;;
70312;SDS011;57723;51.698;5.344;2024-02-23T04:18:01;1.17;;;0.57;;
70312;SDS011;57723;51.698;5.344;2024-02-23T04:20:27;1.63;;;0.57;;
70312;SDS011;57723;51.698;5.344;2024-02-23T04:22:52;1.97;;;0.50;;
70312;SDS011;57723;51.698;5.344;2024-02-23T04:25:17;1.50;;;0.50;;
70312;SDS011;57723;51.698;5.344;2024-02-23T04:27:43;1.27;;;0.60;;
70312;SDS011;57723;51.698;5.344;2024-02-23T04:30:12;1.88;;;0.60;;
70312;SDS011;57723;51.698;5.344;2024-02-23T04:32:38;4.57;;;0.70;;
70312;SDS011;57723;51.698;5.344;2024-02-23T04:35:03;2.37;;;0.60;;
70312;SDS011;57723;51.698;5.344;2024-02-23T04:37:29;6.28;;;0.63;;
70312;SDS011;57723;51.698;5.344;2024-02-23T04:39:54;2.60;;;0.50;;
70312;SDS011;57723;51.698;5.344;2024-02-23T04:42:20;1.93;;;0.50;;
70312;SDS011;57723;51.698;5.344;2024-02-23T04:44:45;2.57;;;0.50;;
70312;SDS011;57723;51.698;5.344;2024-02-23T04:47:11;1.38;;;0.50;;
70312;SDS011;57723;51.698;5.344;2024-02-23T04:49:39;2.53;;;0.83;;
70312;SDS011;57723;51.698;5.344;2024-02-23T04:52:05;1.52;;;0.60;;
70312;SDS011;57723;51.698;5.344;2024-02-23T04:54:34;1.57;;;0.57;;
70312;SDS011;57723;51.698;5.344;2024-02-23T04:57:03;3.63;;;0.55;;
70312;SDS011;57723;51.698;5.344;2024-02-23T04:59:28;1.85;;;0.50;;
70312;SDS011;57723;51.698;5.344;2024-02-23T05:01:55;1.90;;;0.50;;
70312;SDS011;57723;51.698;5.344;2024-02-23T05:04:20;0.70;;;0.50;;
70312;SDS011;57723;51.698;5.344;2024-02-23T05:06:48;1.02;;;0.45;;
70312;SDS011;57723;51.698;5.344;2024-02-23T05:09:13;1.60;;;0.53;;
70312;SDS011;57723;51.698;5.344;2024-02-23T05:11:39;2.30;;;0.50;;
70312;SDS011;57723;51.698;5.344;2024-02-23T05:14:04;0.63;;;0.47;;
70312;SDS011;57723;51.698;5.344;2024-02-23T05:16:31;0.68;;;0.50;;
70312;SDS011;57723;51.698;5.344;2024-02-23T05:18:56;1.23;;;0.50;;
70312;SDS011;57723;51.698;5.344;2024-02-23T05:21:21;2.60;;;0.60;;
70312;SDS011;57723;51.698;5.344;2024-02-23T05:23:46;1.13;;;0.50;;
70312;SDS011;57723;51.698;5.344;2024-02-23T05:26:12;1.90;;;0.60;;
70312;SDS011;57723;51.698;5.344;2024-02-23T05:28:37;6.23;;;0.70;;
70312;SDS011;57723;51.698;5.344;2024-02-23T05:31:03;0.85;;;0.40;;
70312;SDS011;57723;51.698;5.344;2024-02-23T05:33:29;1.65;;;0.60;;
70312;SDS011;57723;51.698;5.344;2024-02-23T05:35:55;0.40;;;0.40;;
70312;SDS011;57723;51.698;5.344;2024-02-23T05:38:20;0.87;;;0.50;;
70312;SDS011;57723;51.698;5.344;2024-02-23T05:40:46;1.85;;;0.60;;
70312;SDS011;57723;51.698;5.344;2024-02-23T05:43:13;2.57;;;0.50;;
70312;SDS011;57723;51.698;5.344;2024-02-23T05:45:40;2.60;;;0.60;;
70312;SDS011;57723;51.698;5.344;2024-02-23T05:48:14;1.95;;;0.50;;
70312;SDS011;57723;51.698;5.344;2024-02-23T05:50:39;3.60;;;0.73;;
70312;SDS011;57723;51.698;5.344;2024-02-23T05:53:05;2.60;;;0.50;;
70312;SDS011;57723;51.698;5.344;2024-02-23T05:55:32;2.70;;;0.50;;
70312;SDS011;57723;51.698;5.344;2024-02-23T05:57:57;2.20;;;0.50;;
70312;SDS011;57723;51.698;5.344;2024-02-23T06:00:25;0.30;;;0.30;;
70312;SDS011;57723;51.698;5.344;2024-02-23T06:02:50;1.60;;;0.55;;
70312;SDS011;57723;51.698;5.344;2024-02-23T06:05:18;3.17;;;1.20;;
70312;SDS011;57723;51.698;5.344;2024-02-23T06:07:44;8.55;;;7.95;;
70312;SDS011;57723;51.698;5.344;2024-02-23T06:10:09;30.83;;;28.63;;
70312;SDS011;57723;51.698;5.344;2024-02-23T06:12:35;62.43;;;58.63;;
70312;SDS011;57723;51.698;5.344;2024-02-23T06:15:00;91.30;;;85.50;;
70312;SDS011;57723;51.698;5.344;2024-02-23T06:17:27;133.68;;;124.88;;
70312;SDS011;57723;51.698;5.344;2024-02-23T06:19:53;163.45;;;152.55;;
70312;SDS011;57723;51.698;5.344;2024-02-23T06:22:18;202.93;;;190.20;;
70312;SDS011;57723;51.698;5.344;2024-02-23T06:24:48;221.03;;;207.77;;
70312;SDS011;57723;51.698;5.344;2024-02-23T06:27:14;13.30;;;12.25;;
70312;SDS011;57723;51.698;5.344;2024-02-23T06:29:39;4.78;;;0.70;;
70312;SDS011;57723;51.698;5.344;2024-02-23T06:32:08;10.40;;;2.53;;
70312;SDS011;57723;51.698;5.344;2024-02-23T06:34:33;3.75;;;2.50;;
70312;SDS011;57723;51.698;5.344;2024-02-23T06:36:59;4.90;;;2.60;;
70312;SDS011;57723;51.698;5.344;2024-02-23T06:39:24;2.97;;;2.35;;
70312;SDS011;57723;51.698;5.344;2024-02-23T06:41:51;3.40;;;2.85;;
70312;SDS011;57723;51.698;5.344;2024-02-23T06:44:16;3.43;;;2.30;;
70312;SDS011;57723;51.698;5.344;2024-02-23T06:46:42;2.80;;;2.40;;
70312;SDS011;57723;51.698;5.344;2024-02-23T06:49:09;4.63;;;2.30;;
70312;SDS011;57723;51.698;5.344;2024-02-23T06:51:35;4.65;;;2.40;;
70312;SDS011;57723;51.698;5.344;2024-02-23T06:54:03;2.80;;;2.42;;
70312;SDS011;57723;51.698;5.344;2024-02-23T06:56:30;4.68;;;2.30;;
70312;SDS011;57723;51.698;5.344;2024-02-23T06:58:55;5.40;;;2.58;;
70312;SDS011;57723;51.698;5.344;2024-02-23T07:01:21;3.00;;;2.40;;
70312;SDS011;57723;51.698;5.344;2024-02-23T07:03:47;2.80;;;2.30;;
70312;SDS011;57723;51.698;5.344;2024-02-23T07:06:15;4.03;;;2.40;;
70312;SDS011;57723;51.698;5.344;2024-02-23T07:08:43;5.25;;;2.30;;
70312;SDS011;57723;51.698;5.344;2024-02-23T07:11:09;3.47;;;2.50;;
70312;SDS011;57723;51.698;5.344;2024-02-23T07:13:35;5.17;;;2.40;;
70312;SDS011;57723;51.698;5.344;2024-02-23T07:16:00;3.15;;;2.22;;
70312;SDS011;57723;51.698;5.344;2024-02-23T07:18:26;3.07;;;2.20;;
70312;SDS011;57723;51.698;5.344;2024-02-23T07:20:51;4.50;;;2.50;;
70312;SDS011;57723;51.698;5.344;2024-02-23T07:23:16;3.53;;;2.40;;
70312;SDS011;57723;51.698;5.344;2024-02-23T07:25:42;2.57;;;2.30;;
70312;SDS011;57723;51.698;5.344;2024-02-23T07:28:07;4.38;;;2.40;;
70312;SDS011;57723;51.698;5.344;2024-02-23T07:30:33;2.50;;;2.13;;
70312;SDS011;57723;51.698;5.344;2024-02-23T07:33:00;2.88;;;2.53;;
70312;SDS011;57723;51.698;5.344;2024-02-23T07:35:29;3.60;;;2.43;;
70312;SDS011;57723;51.698;5.344;2024-02-23T07:37:55;3.90;;;2.30;;
70312;SDS011;57723;51.698;5.344;2024-02-23T07:40:21;3.42;;;2.10;;
70312;SDS011;57723;51.698;5.344;2024-02-23T07:42:46;2.60;;;2.33;;
70312;SDS011;57723;51.698;5.344;2024-02-23T07:45:14;2.75;;;2.40;;
70312;SDS011;57723;51.698;5.344;2024-02-23T07:47:40;3.70;;;2.42;;
70312;SDS011;57723;51.698;5.344;2024-02-23T07:50:06;2.88;;;2.55;;
70312;SDS011;57723;51.698;5.344;2024-02-23T07:52:32;3.50;;;2.65;;
70312;SDS011;57723;51.698;5.344;2024-02-23T07:54:58;4.07;;;2.50;;
70312;SDS011;57723;51.698;5.344;2024-02-23T07:57:30;2.60;;;2.40;;
70312;SDS011;57723;51.698;5.344;2024-02-23T07:59:56;3.75;;;2.53;;
70312;SDS011;57723;51.698;5.344;2024-02-23T08:02:21;2.72;;;2.30;;
70312;SDS011;57723;51.698;5.344;2024-02-23T08:04:47;2.88;;;2.40;;
70312;SDS011;57723;51.698;5.344;2024-02-23T08:07:13;4.27;;;2.43;;
70312;SDS011;57723;51.698;5.344;2024-02-23T08:09:39;2.50;;;2.30;;
70312;SDS011;57723;51.698;5.344;2024-02-23T08:12:05;4.57;;;4.17;;
70312;SDS011;57723;51.698;5.344;2024-02-23T08:14:31;3.75;;;0.50;;
70312;SDS011;57723;51.698;5.344;2024-02-23T08:16:57;1.92;;;0.50;;
70312;SDS011;57723;51.698;5.344;2024-02-23T08:19:23;2.97;;;0.60;;
70312;SDS011;57723;51.698;5.344;2024-02-23T08:21:49;2.05;;;0.60;;
70312;SDS011;57723;51.698;5.344;2024-02-23T08:24:15;1.07;;;0.50;;
70312;SDS011;57723;51.698;5.344;2024-02-23T08:26:43;3.07;;;0.77;;
70312;SDS011;57723;51.698;5.344;2024-02-23T08:29:09;1.55;;;0.50;;
70312;SDS011;57723;51.698;5.344;2024-02-23T08:31:34;1.52;;;0.50;;
70312;SDS011;57723;51.698;5.344;2024-02-23T08:34:00;1.70;;;0.50;;
70312;SDS011;57723;51.698;5.344;2024-02-23T08:36:25;2.10;;;0.60;;
70312;SDS011;57723;51.698;5.344;2024-02-23T08:38:51;1.63;;;0.60;;
70312;SDS011;57723;51.698;5.344;2024-02-23T08:41:16;1.83;;;0.60;;
70312;SDS011;57723;51.698;5.344;2024-02-23T08:43:43;2.42;;;0.60;;
70312;SDS011;57723;51.698;5.344;2024-02-23T08:46:08;4.50;;;0.80;;
70312;SDS011;57723;51.698;5.344;2024-02-23T08:48:34;4.67;;;0.70;;
70312;SDS011;57723;51.698;5.344;2024-02-23T08:50:59;0.98;;;0.50;;
70312;SDS011;57723;51.698;5.344;2024-02-23T08:53:26;2.00;;;0.60;;
70312;SDS011;57723;51.698;5.344;2024-02-23T08:55:51;4.03;;;0.60;;
70312;SDS011;57723;51.698;5.344;2024-02-23T08:58:17;2.33;;;0.57;;
70312;SDS011;57723;51.698;5.344;2024-02-23T09:00:42;1.87;;;0.50;;
70312;SDS011;57723;51.698;5.344;2024-02-23T09:03:08;1.10;;;0.50;;
70312;SDS011;57723;51.698;5.344;2024-02-23T09:05:33;2.70;;;0.70;;
70312;SDS011;57723;51.698;5.344;2024-02-23T09:08:00;0.80;;;0.45;;
70312;SDS011;57723;51.698;5.344;2024-02-23T09:10:25;2.87;;;0.73;;
70312;SDS011;57723;51.698;5.344;2024-02-23T09:12:51;4.40;;;0.70;;
70312;SDS011;57723;51.698;5.344;2024-02-23T09:15:16;3.53;;;0.60;;
70312;SDS011;57723;51.698;5.344;2024-02-23T09:17:42;1.73;;;0.50;;
70312;SDS011;57723;51.698;5.344;2024-02-23T09:20:08;3.13;;;0.60;;
70312;SDS011;57723;51.698;5.344;2024-02-23T09:22:34;2.90;;;0.70;;
70312;SDS011;57723;51.698;5.344;2024-02-23T09:25:00;1.17;;;0.55;;
70312;SDS011;57723;51.698;5.344;2024-02-23T09:27:26;1.27;;;0.50;;
70312;SDS011;57723;51.698;5.344;2024-02-23T09:29:51;1.77;;;0.60;;
70312;SDS011;57723;51.698;5.344;2024-02-23T09:32:17;2.20;;;0.57;;
70312;SDS011;57723;51.698;5.344;2024-02-23T09:34:42;2.47;;;0.70;;
70312;SDS011;57723;51.698;5.344;2024-02-23T09:37:07;1.20;;;0.40;;
70312;SDS011;57723;51.698;5.344;2024-02-23T09:39:33;1.80;;;0.50;;
70312;SDS011;57723;51.698;5.344;2024-02-23T09:41:58;0.90;;;0.70;;
70312;SDS011;57723;51.698;5.344;2024-02-23T09:44:24;1.65;;;0.60;;
70312;SDS011;57723;51.698;5.344;2024-02-23T09:46:51;1.65;;;0.60;;
70312;SDS011;57723;51.698;5.344;2024-02-23T09:49:16;2.30;;;0.60;;
70312;SDS011;57723;51.698;5.344;2024-02-23T09:51:42;1.67;;;0.60;;
70312;SDS011;57723;51.698;5.344;2024-02-23T09:54:08;3.58;;;0.80;;
70312;SDS011;57723;51.698;5.344;2024-02-23T09:56:35;2.10;;;0.88;;
70312;SDS011;57723;51.698;5.344;2024-02-23T09:59:03;2.50;;;0.80;;
70312;SDS011;57723;51.698;5.344;2024-02-23T10:01:29;1.65;;;0.55;;
70312;SDS011;57723;51.698;5.344;2024-02-23T10:03:58;2.63;;;0.90;;
70312;SDS011;57723;51.698;5.344;2024-02-23T10:06:24;0.93;;;0.50;;
70312;SDS011;57723;51.698;5.344;2024-02-23T10:08:50;0.80;;;0.50;;
70312;SDS011;57723;51.698;5.344;2024-02-23T10:11:22;2.38;;;0.63;;
70312;SDS011;57723;51.698;5.344;2024-02-23T10:13:48;2.80;;;0.70;;
70312;SDS011;57723;51.698;5.344;2024-02-23T10:16:19;1.08;;;0.52;;
70312;SDS011;57723;51.698;5.344;2024-02-23T10:18:48;1.95;;;0.63;;
70312;SDS011;57723;51.698;5.344;2024-02-23T10:21:14;1.38;;;0.60;;
70312;SDS011;57723;51.698;5.344;2024-02-23T10:23:40;2.33;;;0.68;;
70312;SDS011;57723;51.698;5.344;2024-02-23T10:26:09;1.40;;;0.60;;
70312;SDS011;57723;51.698;5.344;2024-02-23T10:28:34;1.35;;;0.60;;
70312;SDS011;57723;51.698;5.344;2024-02-23T10:31:00;2.03;;;0.53;;
70312;SDS011;57723;51.698;5.344;2024-02-23T10:33:26;2.17;;;0.77;;
70312;SDS011;57723;51.698;5.344;2024-02-23T10:35:55;2.07;;;0.63;;
70312;SDS011;57723;51.698;5.344;2024-02-23T10:38:22;1.55;;;0.50;;
70312;SDS011;57723;51.698;5.344;2024-02-23T10:40:47;1.00;;;0.40;;
70312;SDS011;57723;51.698;5.344;2024-02-23T10:43:15;2.25;;;0.63;;
70312;SDS011;57723;51.698;5.344;2024-02-23T10:45:41;1.50;;;0.70;;
70312;SDS011;57723;51.698;5.344;2024-02-23T10:48:08;1.50;;;0.70;;
70312;SDS011;57723;51.698;5.344;2024-02-23T10:50:39;2.60;;;0.80;;
70312;SDS011;57723;51.698;5.344;2024-02-23T10:53:09;1.38;;;0.73;;
70312;SDS011;57723;51.698;5.344;2024-02-23T10:55:41;3.08;;;0.50;;
70312;SDS011;57723;51.698;5.344;2024-02-23T10:58:08;1.58;;;0.60;;
70312;SDS011;57723;51.698;5.344;2024-02-23T11:00:36;1.80;;;0.60;;
70312;SDS011;57723;51.698;5.344;2024-02-23T11:03:02;1.75;;;0.60;;
70312;SDS011;57723;51.698;5.344;2024-02-23T11:05:28;2.20;;;0.73;;
70312;SDS011;57723;51.698;5.344;2024-02-23T11:07:55;0.70;;;0.50;;
70312;SDS011;57723;51.698;5.344;2024-02-23T11:10:21;1.67;;;0.70;;
70312;SDS011;57723;51.698;5.344;2024-02-23T11:12:59;3.08;;;0.55;;
70312;SDS011;57723;51.698;5.344;2024-02-23T11:15:28;1.85;;;0.57;;
70312;SDS011;57723;51.698;5.344;2024-02-23T11:17:55;1.93;;;0.50;;
70312;SDS011;57723;51.698;5.344;2024-02-23T11:20:20;1.67;;;0.63;;
70312;SDS011;57723;51.698;5.344;2024-02-23T11:22:53;1.92;;;0.60;;
70312;SDS011;57723;51.698;5.344;2024-02-23T11:25:19;1.65;;;0.60;;
70312;SDS011;57723;51.698;5.344;2024-02-23T11:27:48;2.03;;;0.50;;
70312;SDS011;57723;51.698;5.344;2024-02-23T11:30:16;3.08;;;0.70;;
70312;SDS011;57723;51.698;5.344;2024-02-23T11:32:44;1.13;;;0.50;;
70312;SDS011;57723;51.698;5.344;2024-02-23T11:35:11;12.20;;;3.75;;
70312;SDS011;57723;51.698;5.344;2024-02-23T11:37:51;22.47;;;4.47;;
70312;SDS011;57723;51.698;5.344;2024-02-23T11:40:22;9.63;;;3.85;;
70312;SDS011;57723;51.698;5.344;2024-02-23T11:42:50;4.60;;;3.53;;
70312;SDS011;57723;51.698;5.344;2024-02-23T11:45:16;15.87;;;3.87;;
70312;SDS011;57723;51.698;5.344;2024-02-23T11:47:43;5.32;;;3.63;;
70312;SDS011;57723;51.698;5.344;2024-02-23T11:50:11;5.65;;;3.53;;
70312;SDS011;57723;51.698;5.344;2024-02-23T11:52:39;8.63;;;3.50;;
70312;SDS011;57723;51.698;5.344;2024-02-23T11:55:05;4.43;;;3.67;;
70312;SDS011;57723;51.698;5.344;2024-02-23T11:57:34;9.88;;;3.47;;
70312;SDS011;57723;51.698;5.344;2024-02-23T12:00:00;10.60;;;3.47;;
70312;SDS011;57723;51.698;5.344;2024-02-23T12:02:26;9.68;;;3.53;;
70312;SDS011;57723;51.698;5.344;2024-02-23T12:04:51;6.20;;;4.00;;
70312;SDS011;57723;51.698;5.344;2024-02-23T12:07:26;5.17;;;3.30;;
70312;SDS011;57723;51.698;5.344;2024-02-23T12:09:54;5.55;;;3.50;;
70312;SDS011;57723;51.698;5.344;2024-02-23T12:12:19;6.13;;;3.40;;
70312;SDS011;57723;51.698;5.344;2024-02-23T12:14:45;6.87;;;3.17;;
70312;SDS011;57723;51.698;5.344;2024-02-23T12:17:10;3.90;;;3.50;;
70312;SDS011;57723;51.698;5.344;2024-02-23T12:19:39;4.73;;;3.50;;
70312;SDS011;57723;51.698;5.344;2024-02-23T12:22:07;9.05;;;4.00;;
70312;SDS011;57723;51.698;5.344;2024-02-23T12:24:32;4.37;;;3.90;;
70312;SDS011;57723;51.698;5.344;2024-02-23T12:27:01;6.38;;;3.75;;
70312;SDS011;57723;51.698;5.344;2024-02-23T12:29:27;7.70;;;2.45;;
70312;SDS011;57723;51.698;5.344;2024-02-23T12:32:05;1.87;;;0.60;;
70312;SDS011;57723;51.698;5.344;2024-02-23T12:34:31;3.30;;;0.70;;
70312;SDS011;57723;51.698;5.344;2024-02-23T12:36:56;2.90;;;0.75;;
70312;SDS011;57723;51.698;5.344;2024-02-23T12:39:22;2.03;;;0.70;;
70312;SDS011;57723;51.698;5.344;2024-02-23T12:41:47;4.97;;;0.70;;
70312;SDS011;57723;51.698;5.344;2024-02-23T12:44:13;3.35;;;1.08;;
70312;SDS011;57723;51.698;5.344;2024-02-23T12:46:38;3.55;;;0.65;;
70312;SDS011;57723;51.698;5.344;2024-02-23T12:49:04;6.85;;;1.00;;
70312;SDS011;57723;51.698;5.344;2024-02-23T12:51:29;8.87;;;0.67;;
70312;SDS011;57723;51.698;5.344;2024-02-23T12:53:57;3.97;;;0.70;;
70312;SDS011;57723;51.698;5.344;2024-02-23T12:56:22;2.97;;;0.70;;
70312;SDS011;57723;51.698;5.344;2024-02-23T12:58:50;3.67;;;0.70;;
70312;SDS011;57723;51.698;5.344;2024-02-23T13:01:15;3.37;;;0.60;;
70312;SDS011;57723;51.698;5.344;2024-02-23T13:03:44;4.07;;;0.60;;
70312;SDS011;57723;51.698;5.344;2024-02-23T13:06:09;1.90;;;0.70;;
70312;SDS011;57723;51.698;5.344;2024-02-23T13:08:35;1.57;;;0.57;;
70312;SDS011;57723;51.698;5.344;2024-02-23T13:11:02;2.73;;;0.60;;
70312;SDS011;57723;51.698;5.344;2024-02-23T13:13:28;4.97;;;0.90;;
70312;SDS011;57723;51.698;5.344;2024-02-23T13:15:54;1.77;;;0.60;;
70312;SDS011;57723;51.698;5.344;2024-02-23T13:18:20;3.57;;;0.70;;
70312;SDS011;57723;51.698;5.344;2024-02-23T13:20:49;4.72;;;1.00;;
70312;SDS011;57723;51.698;5.344;2024-02-23T13:23:15;2.00;;;0.70;;
70312;SDS011;57723;51.698;5.344;2024-02-23T13:25:40;1.70;;;0.60;;
70312;SDS011;57723;51.698;5.344;2024-02-23T13:28:07;3.03;;;0.57;;
70312;SDS011;57723;51.698;5.344;2024-02-23T13:30:35;1.85;;;0.50;;
70312;SDS011;57723;51.698;5.344;2024-02-23T13:33:04;2.87;;;0.57;;
70312;SDS011;57723;51.698;5.344;2024-02-23T13:35:32;1.50;;;0.38;;
70312;SDS011;57723;51.698;5.344;2024-02-23T13:37:58;2.50;;;0.70;;
70312;SDS011;57723;51.698;5.344;2024-02-23T13:40:30;5.20;;;0.82;;
70312;SDS011;57723;51.698;5.344;2024-02-23T13:42:57;1.17;;;0.50;;
70312;SDS011;57723;51.698;5.344;2024-02-23T13:45:23;1.50;;;0.57;;
70312;SDS011;57723;51.698;5.344;2024-02-23T13:47:57;3.42;;;0.50;;
70312;SDS011;57723;51.698;5.344;2024-02-23T13:50:23;5.53;;;0.70;;
70312;SDS011;57723;51.698;5.344;2024-02-23T13:52:48;2.05;;;0.80;;
70312;SDS011;57723;51.698;5.344;2024-02-23T13:55:14;1.85;;;0.70;;
70312;SDS011;57723;51.698;5.344;2024-02-23T13:57:39;1.45;;;0.50;;
70312;SDS011;57723;51.698;5.344;2024-02-23T14:00:05;0.90;;;0.55;;
70312;SDS011;57723;51.698;5.344;2024-02-23T14:02:37;1.38;;;0.50;;
70312;SDS011;57723;51.698;5.344;2024-02-23T14:05:08;1.08;;;0.60;;
70312;SDS011;57723;51.698;5.344;2024-02-23T14:07:39;3.03;;;0.60;;
70312;SDS011;57723;51.698;5.344;2024-02-23T14:10:10;4.17;;;0.70;;
70312;SDS011;57723;51.698;5.344;2024-02-23T14:12:40;2.28;;;1.13;;
70312;SDS011;57723;51.698;5.344;2024-02-23T14:15:06;1.75;;;0.60;;
70312;SDS011;57723;51.698;5.344;2024-02-23T14:17:33;5.15;;;3.67;;
70312;SDS011;57723;51.698;5.344;2024-02-23T14:20:00;5.18;;;3.95;;
70312;SDS011;57723;51.698;5.344;2024-02-23T14:22:36;7.25;;;4.70;;
70312;SDS011;57723;51.698;5.344;2024-02-23T14:25:14;9.60;;;4.18;;
70312;SDS011;57723;51.698;5.344;2024-02-23T14:27:39;9.00;;;4.45;;
70312;SDS011;57723;51.698;5.344;2024-02-23T14:30:05;22.60;;;4.33;;
70312;SDS011;57723;51.698;5.344;2024-02-23T14:32:33;14.93;;;4.30;;
70312;SDS011;57723;51.698;5.344;2024-02-23T14:35:02;15.20;;;4.30;;
70312;SDS011;57723;51.698;5.344;2024-02-23T14:37:28;9.32;;;1.00;;
70312;SDS011;57723;51.698;5.344;2024-02-23T14:39:54;11.93;;;1.02;;
70312;SDS011;57723;51.698;5.344;2024-02-23T14:42:20;11.50;;;2.13;;